Superfast Xi — SYCF — position and weather

sailwx.info

Track history (hours):
 
Tides and Currents Weather Stations Pressure Air Temp Water Temp Dewpoint Dewpoint Depression Visibility Wind Speed Wind Dir Waves Ship Positions

Superfast Xi

Last reported at 2016-Jun-26 19:17 UTC. Time now 2016-Jun-29 02:06 UTC.
Position N 42°50' E 015°04'.

Length 200 m; draft 6.4 m.

Type: Passenger vessel. MMSI: 239918000.

Date/timePositionNaut miles runAvg speedWind from/ knotsBaromVisibWave heightAir tempDewpointWater temp
2016-Jun-26 19:17N 42°50' E 015°04'2027.5
2016-Jun-26 18:34N 43°03' E 014°44'3127.6
2016-Jun-26 17:26N 43°24' E 014°12'2427.7
2016-Jun-26 16:33N 43°41' E 013°48'13 9.4
2016-Jun-26 15:09N 43°37' E 013°30'0 0.0
2016-Jun-26 14:33N 43°37' E 013°30'48217.2
2016-Jun-25 10:33N 38°15' E 021°25'2323.1
2016-Jun-25 09:33N 38°21' E 020°56'  
2016-Jun-22 17:24N 38°32' E 020°35'2023.6
2016-Jun-22 16:33N 38°22' E 020°56'2322.9
2016-Jun-22 15:33N 38°15' E 021°24'16 1.0
2016-Jun-21 23:15N 38°15' E 021°44'0 0.0
2016-Jun-21 21:12N 38°15' E 021°44'0 0.0
2016-Jun-21 20:32N 38°15' E 021°44'2 0.2
2016-Jun-21 08:18N 38°16' E 021°42'2 0.2
2016-Jun-20 23:23N 38°15' E 021°44'0 0.0
2016-Jun-20 21:23N 38°15' E 021°44'0 0.0
2016-Jun-20 20:20N 38°15' E 021°44'0 0.0
2016-Jun-20 17:22N 38°15' E 021°44'0 0.0
2016-Jun-20 15:28N 38°15' E 021°44'1213.5
2016-Jun-20 14:34N 38°16' E 021°29'2424.2
2016-Jun-20 13:34N 38°20' E 020°58'23 0.5
2016-Jun-18 17:27N 38°32' E 020°34'2325.3
2016-Jun-18 16:33N 38°21' E 020°58'2323.3
2016-Jun-18 15:33N 38°15' E 021°27'1312.5
2016-Jun-18 14:33N 38°14' E 021°43'0 0.0
2016-Jun-18 13:33N 38°14' E 021°43'14 5.7
2016-Jun-18 11:08N 38°15' E 021°26'1323.5
2016-Jun-18 10:34N 38°16' E 021°09'2423.4
2016-Jun-18 09:32N 38°30' E 020°44'  
Track history (hours):
 
Tides and Currents Weather Stations Pressure Air Temp Water Temp Dewpoint Dewpoint Depression Visibility Wind Speed Wind Dir Waves Ship Positions

Superfast Xi

Last reported at 2016-Jun-26 19:17 UTC. Time now 2016-Jun-29 02:06 UTC.
Position N 42°50' E 015°04'.

Length 200 m; draft 6.4 m.

Type: Passenger vessel. MMSI: 239918000.

Date/timePositionNaut miles runAvg speedWind from/ knotsBaromVisibWave heightAir tempDewpointWater temp
2016-Jun-26 19:17N 42°50' E 015°04'2027.5
2016-Jun-26 18:34N 43°03' E 014°44'3127.6
2016-Jun-26 17:26N 43°24' E 014°12'2427.7
2016-Jun-26 16:33N 43°41' E 013°48'13 9.4
2016-Jun-26 15:09N 43°37' E 013°30'0 0.0
2016-Jun-26 14:33N 43°37' E 013°30'48217.2
2016-Jun-25 10:33N 38°15' E 021°25'2323.1
2016-Jun-25 09:33N 38°21' E 020°56'  
2016-Jun-22 17:24N 38°32' E 020°35'2023.6
2016-Jun-22 16:33N 38°22' E 020°56'2322.9
2016-Jun-22 15:33N 38°15' E 021°24'16 1.0
2016-Jun-21 23:15N 38°15' E 021°44'0 0.0
2016-Jun-21 21:12N 38°15' E 021°44'0 0.0
2016-Jun-21 20:32N 38°15' E 021°44'2 0.2
2016-Jun-21 08:18N 38°16' E 021°42'2 0.2
2016-Jun-20 23:23N 38°15' E 021°44'0 0.0
2016-Jun-20 21:23N 38°15' E 021°44'0 0.0
2016-Jun-20 20:20N 38°15' E 021°44'0 0.0
2016-Jun-20 17:22N 38°15' E 021°44'0 0.0
2016-Jun-20 15:28N 38°15' E 021°44'1213.5
2016-Jun-20 14:34N 38°16' E 021°29'2424.2
2016-Jun-20 13:34N 38°20' E 020°58'23 0.5
2016-Jun-18 17:27N 38°32' E 020°34'2325.3
2016-Jun-18 16:33N 38°21' E 020°58'2323.3
2016-Jun-18 15:33N 38°15' E 021°27'1312.5
2016-Jun-18 14:33N 38°14' E 021°43'0 0.0
2016-Jun-18 13:33N 38°14' E 021°43'14 5.7
2016-Jun-18 11:08N 38°15' E 021°26'1323.5
2016-Jun-18 10:34N 38°16' E 021°09'2423.4
2016-Jun-18 09:32N 38°30' E 020°44'  

Dump ship's entire track history